Time;durP1;ratioP1;P1;durP2;ratioP2;P2;SDS_P1;SDS_P2;PMS_P1;PMS_P2;Temp;Humidity;BMP_temperature;BMP_pressure;BME280_temperature;BME280_humidity;BME280_pressure;Samples;Min_cycle;Max_cycle;Signal;HPM_P1;HPM_P2
2022/10/11 00:01:59;;;;;;;11.48;6.45;;;11.50;99.90;;;;;;5041442;28;20591;-85
2022/10/11 00:04:25;;;;;;;7.53;5.45;;;11.40;99.90;;;;;;5031611;28;20032;-84
2022/10/11 00:06:51;;;;;;;8.57;5.38;;;11.40;99.90;;;;;;5034216;28;20070;-85
2022/10/11 00:09:16;;;;;;;11.68;6.10;;;11.40;99.90;;;;;;5030236;28;20025;-85
2022/10/11 00:11:42;;;;;;;10.65;7.57;;;11.30;99.90;;;;;;5060166;28;20051;-85
2022/10/11 00:14:08;;;;;;;11.43;7.78;;;11.30;99.90;;;;;;5065880;28;20032;-85
2022/10/11 00:16:34;;;;;;;12.43;7.68;;;11.40;99.90;;;;;;5058961;28;20579;-86
2022/10/11 00:18:59;;;;;;;11.15;6.68;;;11.40;99.90;;;;;;5034369;28;20024;-85
2022/10/11 00:21:26;;;;;;;8.85;6.47;;;11.40;99.90;;;;;;5034149;28;20043;-86
2022/10/11 00:23:51;;;;;;;10.45;7.60;;;11.40;99.90;;;;;;5050210;28;20040;-85
2022/10/11 00:26:17;;;;;;;10.95;7.38;;;11.40;99.90;;;;;;5042659;28;20033;-86
2022/10/11 00:28:43;;;;;;;12.05;7.00;;;11.40;99.90;;;;;;5051437;28;20033;-86
2022/10/11 00:31:12;;;;;;;9.68;7.00;;;11.40;99.90;;;;;;5033876;28;20043;-86
2022/10/11 00:33:38;;;;;;;12.05;7.72;;;11.40;99.90;;;;;;5067320;28;20029;-87
2022/10/11 00:36:04;;;;;;;10.40;7.75;;;11.50;99.90;;;;;;5046310;28;20043;-85
2022/10/11 00:38:30;;;;;;;12.57;7.47;;;11.50;99.90;;;;;;5060199;28;20105;-85
2022/10/11 00:40:56;;;;;;;11.55;8.32;;;11.60;99.90;;;;;;5033988;28;20491;-85
2022/10/11 00:43:25;;;;;;;14.55;7.85;;;11.60;99.90;;;;;;5014784;28;20121;-85
2022/10/11 00:45:56;;;;;;;13.82;8.45;;;11.60;99.90;;;;;;5045202;28;20504;-85
2022/10/11 00:48:31;;;;;;;9.65;7.40;;;11.60;99.90;;;;;;5067207;28;20068;-85
2022/10/11 00:50:59;;;;;;;11.05;7.50;;;11.60;99.90;;;;;;5037523;28;20028;-86
2022/10/11 00:53:28;;;;;;;12.60;9.45;;;11.50;99.90;;;;;;5052409;28;20029;-85
2022/10/11 00:56:06;;;;;;;12.93;9.23;;;11.50;99.90;;;;;;5044452;28;20029;-86
2022/10/11 00:58:34;;;;;;;12.60;8.63;;;11.50;99.90;;;;;;5067408;28;20121;-85
2022/10/11 01:01:00;;;;;;;15.20;8.80;;;11.50;99.90;;;;;;5039880;28;20048;-86
2022/10/11 01:03:27;;;;;;;18.30;10.23;;;11.50;99.90;;;;;;5048811;28;20114;-85
2022/10/11 01:05:53;;;;;;;12.93;8.80;;;11.40;99.90;;;;;;5039957;28;20040;-86
2022/10/11 01:08:20;;;;;;;17.65;9.73;;;11.40;99.90;;;;;;5036435;28;20032;-86
2022/10/11 01:10:46;;;;;;;14.32;8.73;;;11.30;99.90;;;;;;5019466;28;20449;-86
2022/10/11 01:13:27;;;;;;;11.38;8.02;;;11.30;99.90;;;;;;5042666;28;20105;-86
2022/10/11 01:16:22;;;;;;;9.02;6.97;;;11.30;99.90;;;;;;5065085;28;20024;-84
2022/10/11 01:19:15;;;;;;;10.30;6.90;;;11.30;99.90;;;;;;5047942;28;20055;-85
2022/10/11 01:22:01;;;;;;;11.68;8.15;;;11.30;99.90;;;;;;5071214;28;20092;-85
2022/10/11 01:25:02;;;;;;;10.65;7.78;;;11.30;99.90;;;;;;5063893;28;20619;-85
2022/10/11 01:27:54;;;;;;;9.00;7.07;;;11.30;99.90;;;;;;5070310;28;20028;-86
2022/10/11 01:30:33;;;;;;;9.13;6.00;;;11.20;99.90;;;;;;5051481;28;20037;-85
2022/10/11 01:33:21;;;;;;;9.38;7.00;;;11.20;99.90;;;;;;5053176;28;20035;-86
2022/10/11 01:36:17;;;;;;;8.82;6.88;;;11.20;99.90;;;;;;5070461;28;20017;-85
2022/10/11 01:38:52;;;;;;;9.65;6.75;;;11.20;99.90;;;;;;5061489;28;20029;-86
2022/10/11 01:41:29;;;;;;;9.65;7.53;;;11.20;99.90;;;;;;5060468;28;20516;-85
2022/10/11 01:43:59;;;;;;;10.90;7.93;;;11.20;99.90;;;;;;5053548;28;20029;-85
2022/10/11 01:46:27;;;;;;;11.25;7.03;;;11.30;99.90;;;;;;5045880;28;20131;-85
2022/10/11 01:48:56;;;;;;;12.98;8.02;;;11.30;99.90;;;;;;5070737;28;20028;-85
2022/10/11 01:51:28;;;;;;;10.05;7.00;;;11.30;99.90;;;;;;5053700;28;20025;-85
2022/10/11 01:54:00;;;;;;;9.20;6.72;;;11.30;99.90;;;;;;5053741;28;20032;-86
2022/10/11 01:56:59;;;;;;;9.30;6.78;;;11.30;99.90;;;;;;5053608;28;20029;-85
2022/10/11 01:59:40;;;;;;;10.82;6.65;;;11.30;99.90;;;;;;5051973;28;20082;-86
2022/10/11 02:02:06;;;;;;;9.18;6.63;;;11.30;99.90;;;;;;5045837;28;20033;-86
2022/10/11 02:04:52;;;;;;;9.70;6.75;;;11.30;99.90;;;;;;5050298;28;20086;-85
2022/10/11 02:07:30;;;;;;;;;;;11.30;99.90;;;;;;5068326;28;20138;-86
2022/10/11 02:10:36;;;;;;;9.02;5.50;;;11.30;99.90;;;;;;5069885;28;20388;-86
2022/10/11 02:13:05;;;;;;;10.18;7.53;;;11.30;99.90;;;;;;5056411;28;20499;-85
2022/10/11 02:15:32;;;;;;;11.30;7.00;;;11.30;99.90;;;;;;5053029;28;20040;-86
2022/10/11 02:18:03;;;;;;;10.80;6.78;;;11.30;99.90;;;;;;5053584;28;20135;-85
2022/10/11 02:20:31;;;;;;;7.28;5.85;;;11.30;99.90;;;;;;5036920;28;20139;-85
2022/10/11 02:23:20;;;;;;;8.68;6.38;;;11.30;99.90;;;;;;5069587;28;20075;-86
2022/10/11 02:25:48;;;;;;;10.20;7.05;;;11.30;99.90;;;;;;5049224;28;20044;-86
2022/10/11 02:28:18;;;;;;;8.15;6.53;;;11.30;99.90;;;;;;5053602;28;20646;-86
2022/10/11 02:30:48;;;;;;;10.57;7.85;;;11.30;99.90;;;;;;5052821;28;20085;-86
2022/10/11 02:33:20;;;;;;;16.73;11.77;;;11.40;99.90;;;;;;5052819;28;20087;-85
2022/10/11 02:35:52;;;;;;;17.13;12.57;;;11.40;99.90;;;;;;5036981;28;20066;-85
2022/10/11 02:38:20;;;;;;;12.23;9.63;;;11.30;99.90;;;;;;5053688;28;20028;-86
2022/10/11 02:40:55;;;;;;;13.82;9.85;;;11.30;99.90;;;;;;5054767;28;20029;-85
2022/10/11 02:44:02;;;;;;;12.98;8.13;;;11.30;99.90;;;;;;5057830;28;20145;-86
2022/10/11 02:46:31;;;;;;;12.70;8.15;;;11.30;99.90;;;;;;5043985;28;20135;-86
2022/10/11 02:48:59;;;;;;;9.20;7.28;;;11.30;99.90;;;;;;5051583;28;20029;-85
2022/10/11 02:51:28;;;;;;;7.72;5.28;;;11.30;99.90;;;;;;5048774;28;20646;-85
2022/10/11 02:53:54;;;;;;;9.82;5.00;;;11.30;99.90;;;;;;5036045;28;20037;-86
2022/10/11 02:56:20;;;;;;;7.18;5.13;;;11.30;99.90;;;;;;5052266;28;20073;-85
2022/10/11 02:58:46;;;;;;;7.65;5.55;;;11.30;99.90;;;;;;5032549;28;20083;-85
2022/10/11 03:01:12;;;;;;;5.82;4.55;;;11.30;99.90;;;;;;5040598;28;20426;-86
2022/10/11 03:03:38;;;;;;;12.02;5.70;;;11.30;99.90;;;;;;5052009;28;20037;-86
2022/10/11 03:06:04;;;;;;;5.95;5.13;;;11.20;99.90;;;;;;5019026;28;20112;-85
2022/10/11 03:08:30;;;;;;;7.63;6.40;;;11.20;99.90;;;;;;5022912;28;20033;-86
2022/10/11 03:10:56;;;;;;;9.43;6.38;;;11.20;99.90;;;;;;5044063;28;20033;-85
2022/10/11 03:13:22;;;;;;;10.18;5.90;;;11.20;99.90;;;;;;5045639;28;20093;-85
2022/10/11 03:15:49;;;;;;;8.00;6.22;;;11.20;99.90;;;;;;5068109;28;20358;-85
2022/10/11 03:18:16;;;;;;;10.57;7.15;;;11.20;99.90;;;;;;5051864;28;20043;-85
2022/10/11 03:20:42;;;;;;;11.27;7.47;;;11.20;99.90;;;;;;5068651;28;20119;-85
2022/10/11 03:23:08;;;;;;;12.18;7.85;;;11.20;99.90;;;;;;5051705;28;20025;-85
2022/10/11 03:25:34;;;;;;;11.73;8.00;;;11.20;99.90;;;;;;5051590;28;20032;-85
2022/10/11 03:28:00;;;;;;;12.70;8.00;;;11.20;99.90;;;;;;5035218;28;20033;-85
2022/10/11 03:30:26;;;;;;;14.75;9.23;;;11.20;99.90;;;;;;5051164;28;20063;-84
2022/10/11 03:32:52;;;;;;;14.35;8.90;;;11.30;99.90;;;;;;5034989;28;20078;-85
2022/10/11 03:35:17;;;;;;;11.02;7.80;;;11.30;99.90;;;;;;5023190;28;20517;-85
2022/10/11 03:37:43;;;;;;;13.77;8.70;;;11.30;99.90;;;;;;5051417;28;20127;-85
2022/10/11 03:40:10;;;;;;;13.02;8.32;;;11.30;99.90;;;;;;5034874;28;20166;-85
2022/10/11 03:42:36;;;;;;;20.75;12.18;;;11.30;99.90;;;;;;5068332;28;20032;-85
2022/10/11 03:45:06;;;;;;;18.92;11.68;;;11.40;99.90;;;;;;5034937;28;20037;-84
2022/10/11 03:47:34;;;;;;;17.60;10.82;;;11.50;99.90;;;;;;5039150;28;20040;-86
2022/10/11 03:50:00;;;;;;;14.27;9.52;;;11.40;99.90;;;;;;5039610;28;20024;-84
2022/10/11 03:52:25;;;;;;;12.63;8.35;;;11.50;99.90;;;;;;5050849;28;20033;-85
2022/10/11 03:54:51;;;;;;;13.73;8.68;;;11.40;99.90;;;;;;5034762;28;20037;-85
2022/10/11 03:57:17;;;;;;;10.77;7.82;;;11.40;99.90;;;;;;5017421;28;20040;-85
2022/10/11 03:59:43;;;;;;;10.50;7.90;;;11.40;99.90;;;;;;5039662;28;20041;-85
2022/10/11 04:02:09;;;;;;;11.25;8.25;;;11.30;99.90;;;;;;5040222;28;20124;-85
2022/10/11 04:04:35;;;;;;;11.63;7.65;;;11.30;99.90;;;;;;5041949;28;20028;-85
2022/10/11 04:07:01;;;;;;;9.65;6.57;;;11.30;99.90;;;;;;5067358;28;20473;-85
2022/10/11 04:09:27;;;;;;;9.95;7.20;;;11.30;99.90;;;;;;5050948;28;20123;-85
2022/10/11 04:11:53;;;;;;;9.25;7.32;;;11.30;99.90;;;;;;5050804;28;20046;-85
2022/10/11 04:14:18;;;;;;;11.40;7.18;;;11.30;99.90;;;;;;5037617;28;20714;-85
2022/10/11 04:16:44;;;;;;;10.05;6.50;;;11.30;99.90;;;;;;5029775;28;20501;-84
2022/10/11 04:19:10;;;;;;;13.55;8.07;;;11.30;99.90;;;;;;5042516;28;20520;-85
2022/10/11 04:21:36;;;;;;;12.38;7.72;;;11.30;99.90;;;;;;5017199;28;20512;-85
2022/10/11 04:24:02;;;;;;;11.60;8.75;;;11.30;99.90;;;;;;5063123;28;20029;-84
2022/10/11 04:26:27;;;;;;;9.48;6.93;;;11.30;99.90;;;;;;5062754;28;20032;-85
2022/10/11 04:28:53;;;;;;;12.07;7.43;;;11.20;99.90;;;;;;5049409;28;20033;-85
2022/10/11 04:31:19;;;;;;;13.07;7.40;;;11.20;99.90;;;;;;5049802;28;20119;-85
2022/10/11 04:33:45;;;;;;;10.23;7.32;;;11.20;99.90;;;;;;5050304;28;20059;-85
2022/10/11 04:36:11;;;;;;;12.48;7.40;;;11.20;99.90;;;;;;5041204;28;20033;-85
2022/10/11 04:38:36;;;;;;;17.73;9.43;;;11.20;99.90;;;;;;5050142;28;20052;-85
2022/10/11 04:41:11;;;;;;;15.00;7.72;;;11.20;99.90;;;;;;5050322;28;20032;-85
2022/10/11 04:43:37;;;;;;;10.98;7.55;;;11.20;99.90;;;;;;5032497;28;20124;-84
2022/10/11 04:46:03;;;;;;;11.48;7.68;;;11.20;99.90;;;;;;5054373;28;20059;-85
2022/10/11 04:48:29;;;;;;;12.32;8.40;;;11.20;99.90;;;;;;5051276;28;20029;-85
2022/10/11 04:50:55;;;;;;;8.90;7.43;;;11.20;99.90;;;;;;5047932;28;20028;-85
2022/10/11 04:53:21;;;;;;;11.25;7.50;;;11.20;99.90;;;;;;5050190;28;20397;-85
2022/10/11 04:56:02;;;;;;;11.38;7.45;;;11.20;99.90;;;;;;5012984;28;20113;-85
2022/10/11 04:58:28;;;;;;;13.73;8.07;;;11.20;99.90;;;;;;5050231;28;20037;-85
2022/10/11 05:00:55;;;;;;;16.23;8.10;;;11.20;99.90;;;;;;5050078;28;20025;-85
2022/10/11 05:03:21;;;;;;;11.23;8.15;;;11.10;99.90;;;;;;5033599;28;20033;-84
2022/10/11 05:05:47;;;;;;;9.70;7.65;;;11.20;99.90;;;;;;5046770;28;20029;-85
2022/10/11 05:08:12;;;;;;;11.75;7.70;;;11.10;99.90;;;;;;5050362;28;20401;-85
2022/10/11 05:10:38;;;;;;;14.15;7.78;;;11.20;99.90;;;;;;5033314;28;20035;-85
2022/10/11 05:13:04;;;;;;;13.23;7.85;;;11.10;99.90;;;;;;5033603;28;20085;-84
2022/10/11 05:15:30;;;;;;;15.73;8.15;;;11.10;99.90;;;;;;5033544;28;20036;-84
2022/10/11 05:17:56;;;;;;;15.20;8.60;;;11.10;99.90;;;;;;5047217;28;20033;-84
2022/10/11 05:20:22;;;;;;;10.27;7.50;;;11.10;99.90;;;;;;5032131;28;21122;-84
2022/10/11 05:22:47;;;;;;;12.45;7.93;;;11.10;99.90;;;;;;5046367;28;20406;-84
2022/10/11 05:25:13;;;;;;;12.05;7.53;;;11.10;99.90;;;;;;5054251;28;20119;-84
2022/10/11 05:27:39;;;;;;;13.25;7.07;;;11.10;99.90;;;;;;5049642;28;20035;-84
2022/10/11 05:30:05;;;;;;;8.35;6.65;;;11.10;99.90;;;;;;5044317;28;20041;-85
2022/10/11 05:32:31;;;;;;;13.13;7.85;;;11.10;99.90;;;;;;5029813;28;20040;-84
2022/10/11 05:34:57;;;;;;;9.00;7.10;;;11.10;99.90;;;;;;5044831;28;20021;-84
2022/10/11 05:37:23;;;;;;;9.40;7.22;;;11.10;99.90;;;;;;5048856;28;20560;-85
2022/10/11 05:39:48;;;;;;;9.88;7.43;;;11.10;99.90;;;;;;5040512;28;20408;-84
2022/10/11 05:42:14;;;;;;;11.57;7.57;;;11.10;99.90;;;;;;5044553;28;20048;-84
2022/10/11 05:44:40;;;;;;;12.38;7.22;;;11.10;99.90;;;;;;5069212;28;20166;-85
2022/10/11 05:47:06;;;;;;;12.57;7.85;;;11.10;99.90;;;;;;5070379;28;20028;-85
2022/10/11 05:49:32;;;;;;;13.05;8.30;;;11.10;99.90;;;;;;5050529;28;20033;-85
2022/10/11 05:51:58;;;;;;;13.23;9.05;;;11.10;99.90;;;;;;5031856;28;20043;-84
2022/10/11 05:54:24;;;;;;;12.13;7.95;;;11.10;99.90;;;;;;5053695;28;20036;-84
2022/10/11 05:56:49;;;;;;;15.95;8.52;;;11.10;99.90;;;;;;5053779;28;20609;-84
2022/10/11 05:59:15;;;;;;;14.38;8.00;;;11.10;99.90;;;;;;5035782;28;20039;-85
2022/10/11 06:01:41;;;;;;;13.70;8.65;;;11.10;99.90;;;;;;5026930;28;20489;-86
2022/10/11 06:04:07;;;;;;;16.60;8.27;;;11.10;99.90;;;;;;5049477;28;20037;-84
2022/10/11 06:06:33;;;;;;;14.02;9.07;;;11.20;99.90;;;;;;5032251;28;20041;-84
2022/10/11 06:08:59;;;;;;;17.67;8.68;;;11.20;99.90;;;;;;5045820;28;20028;-85
2022/10/11 06:11:26;;;;;;;14.45;9.65;;;11.20;99.90;;;;;;5051985;28;20052;-84
2022/10/11 06:13:54;;;;;;;15.98;10.10;;;11.20;99.90;;;;;;5044455;28;20043;-84
2022/10/11 06:16:19;;;;;;;15.55;9.70;;;11.20;99.90;;;;;;5049135;28;20033;-84
2022/10/11 06:18:46;;;;;;;15.07;9.27;;;11.20;99.90;;;;;;5018364;28;20113;-84
2022/10/11 06:21:12;;;;;;;12.38;8.63;;;11.30;99.90;;;;;;5060042;28;20029;-84
2022/10/11 06:23:38;;;;;;;17.48;9.02;;;11.30;99.90;;;;;;5068641;28;20032;-84
2022/10/11 06:26:06;;;;;;;15.20;9.63;;;11.30;99.90;;;;;;5068023;28;20025;-84
2022/10/11 06:28:34;;;;;;;14.88;9.75;;;11.40;99.90;;;;;;5064136;28;20067;-84
2022/10/11 06:31:02;;;;;;;14.38;9.40;;;11.40;99.90;;;;;;5037879;28;20029;-84
2022/10/11 06:33:28;;;;;;;16.17;9.70;;;11.50;99.90;;;;;;5059125;28;20059;-84
2022/10/11 06:36:02;;;;;;;15.23;10.38;;;11.50;99.90;;;;;;5053668;28;20052;-85
2022/10/11 06:38:28;;;;;;;19.50;10.30;;;11.50;99.90;;;;;;5038748;28;20044;-83
2022/10/11 06:40:54;;;;;;;16.65;10.55;;;11.50;99.90;;;;;;5036156;28;20194;-84
2022/10/11 06:43:20;;;;;;;19.17;10.90;;;11.50;99.90;;;;;;5036116;28;20446;-85
2022/10/11 06:45:46;;;;;;;20.50;10.88;;;11.40;99.90;;;;;;5067460;28;20064;-84
2022/10/11 06:48:11;;;;;;;21.63;11.57;;;11.40;99.90;;;;;;5062600;28;20063;-84
2022/10/11 06:50:37;;;;;;;20.05;11.20;;;11.50;99.90;;;;;;5050355;28;20031;-84
2022/10/11 06:53:05;;;;;;;21.88;12.05;;;11.60;99.90;;;;;;5038111;28;20692;-84
2022/10/11 06:55:31;;;;;;;17.90;11.57;;;11.70;99.90;;;;;;5052733;28;20032;-85
2022/10/11 06:57:57;;;;;;;20.08;12.15;;;11.80;99.90;;;;;;5052361;28;20047;-84
2022/10/11 07:00:23;;;;;;;18.13;10.65;;;12.00;99.90;;;;;;5047395;28;20128;-84
2022/10/11 07:02:49;;;;;;;23.08;11.32;;;12.00;99.90;;;;;;5035598;28;20127;-84
2022/10/11 07:05:15;;;;;;;16.00;10.07;;;12.10;99.90;;;;;;5048219;28;20063;-85
2022/10/11 07:07:41;;;;;;;20.58;9.82;;;12.10;99.90;;;;;;5053524;28;20032;-85
2022/10/11 07:10:08;;;;;;;18.35;10.13;;;12.00;99.90;;;;;;5052890;28;20024;-84
2022/10/11 07:12:33;;;;;;;19.73;10.38;;;12.00;99.90;;;;;;5048675;28;20706;-85
2022/10/11 07:14:59;;;;;;;17.45;9.80;;;12.00;99.90;;;;;;5052569;28;20036;-85
2022/10/11 07:17:25;;;;;;;17.85;9.73;;;11.90;99.90;;;;;;5019352;28;20131;-84
2022/10/11 07:19:51;;;;;;;14.45;8.80;;;11.90;99.90;;;;;;5041904;28;20063;-84
2022/10/11 07:22:16;;;;;;;17.05;9.40;;;11.90;99.90;;;;;;5067813;28;20124;-85
2022/10/11 07:24:42;;;;;;;21.73;10.52;;;11.90;99.90;;;;;;5048937;28;20033;-85
2022/10/11 07:27:08;;;;;;;20.85;10.25;;;11.90;99.90;;;;;;5050935;28;20028;-84
2022/10/11 07:29:34;;;;;;;20.20;9.23;;;11.90;99.90;;;;;;5033264;28;20025;-84
2022/10/11 07:32:00;;;;;;;16.13;8.93;;;11.90;99.90;;;;;;5060941;28;20060;-85
2022/10/11 07:34:26;;;;;;;15.05;8.50;;;12.00;99.90;;;;;;5041322;28;20128;-86
2022/10/11 07:36:51;;;;;;;18.27;8.20;;;12.00;99.90;;;;;;5035174;28;20500;-85
2022/10/11 07:39:17;;;;;;;21.65;9.35;;;12.10;99.90;;;;;;5051025;28;20037;-85
2022/10/11 07:41:43;;;;;;;15.93;8.38;;;12.20;99.90;;;;;;5028819;28;20044;-85
2022/10/11 07:44:09;;;;;;;16.60;8.20;;;12.40;99.90;;;;;;5040631;28;20087;-85
2022/10/11 07:46:35;;;;;;;20.00;7.97;;;12.60;99.90;;;;;;5050886;28;20025;-85
2022/10/11 07:49:00;;;;;;;14.07;7.50;;;12.70;99.90;;;;;;5048871;28;20033;-85
2022/10/11 07:51:26;;;;;;;12.77;6.90;;;12.80;99.90;;;;;;5030831;28;20052;-85
2022/10/11 07:53:54;;;;;;;15.00;6.65;;;12.90;99.90;;;;;;5049631;28;20079;-84
2022/10/11 07:56:26;;;;;;;11.05;6.03;;;13.00;99.90;;;;;;5047856;28;20032;-84
2022/10/11 07:58:54;;;;;;;11.27;6.35;;;13.00;99.90;;;;;;5021615;28;20123;-85
2022/10/11 08:01:21;;;;;;;12.70;6.57;;;13.10;99.90;;;;;;5042361;28;20098;-84
2022/10/11 08:03:47;;;;;;;11.90;6.25;;;13.10;99.90;;;;;;5052068;28;20059;-84
2022/10/11 08:06:16;;;;;;;15.63;7.38;;;13.10;99.90;;;;;;5052049;28;20500;-85
2022/10/11 08:08:42;;;;;;;15.25;6.15;;;13.00;99.90;;;;;;5049533;28;20554;-84
2022/10/11 08:11:08;;;;;;;13.88;6.25;;;13.10;99.90;;;;;;5052648;28;20062;-85
2022/10/11 08:13:33;;;;;;;12.55;5.72;;;13.10;99.90;;;;;;5035880;28;20557;-84
2022/10/11 08:15:59;;;;;;;9.70;5.75;;;13.20;99.90;;;;;;5052043;28;20067;-85
2022/10/11 08:18:25;;;;;;;13.30;5.60;;;13.20;99.90;;;;;;5035533;28;20028;-85
2022/10/11 08:20:51;;;;;;;10.45;5.75;;;13.30;99.90;;;;;;5051121;28;20549;-84
2022/10/11 08:23:18;;;;;;;7.50;5.57;;;13.40;99.90;;;;;;5067398;28;20021;-85
2022/10/11 08:25:46;;;;;;;6.75;5.20;;;13.40;99.90;;;;;;5052116;28;20043;-85
2022/10/11 08:28:15;;;;;;;9.52;5.68;;;13.40;99.90;;;;;;5053195;28;20081;-86
2022/10/11 08:30:52;;;;;;;10.48;6.00;;;13.50;99.90;;;;;;5052198;28;20532;-85
2022/10/11 08:33:19;;;;;;;10.52;5.57;;;13.50;99.90;;;;;;5051319;28;20032;-86
2022/10/11 08:35:46;;;;;;;12.40;5.80;;;13.50;99.90;;;;;;5037776;28;20028;-85
2022/10/11 08:38:12;;;;;;;8.45;5.30;;;13.50;99.90;;;;;;5037418;28;20033;-84
2022/10/11 08:40:43;;;;;;;8.20;5.25;;;13.50;99.90;;;;;;5018895;28;20038;-85
2022/10/11 08:43:22;;;;;;;8.18;4.65;;;13.50;99.90;;;;;;5035919;28;20043;-85
2022/10/11 08:45:54;;;;;;;8.60;4.72;;;13.50;99.90;;;;;;5051179;28;20056;-84
2022/10/11 08:48:42;;;;;;;8.80;5.13;;;13.40;99.90;;;;;;5051742;28;20029;-85
2022/10/11 08:51:24;;;;;;;10.30;5.38;;;13.30;99.90;;;;;;5046607;28;20067;-85
2022/10/11 08:54:05;;;;;;;9.43;5.00;;;13.30;99.90;;;;;;5053483;28;20033;-84
2022/10/11 08:56:35;;;;;;;9.50;4.78;;;13.30;99.90;;;;;;5038383;28;20072;-86
2022/10/11 08:59:19;;;;;;;8.07;4.72;;;13.30;99.90;;;;;;5033717;28;20033;-85
2022/10/11 09:01:55;;;;;;;8.73;4.88;;;13.40;99.90;;;;;;5056940;28;20094;-85
2022/10/11 09:04:21;;;;;;;8.68;5.30;;;13.50;99.90;;;;;;5019892;28;20035;-85
2022/10/11 09:07:06;;;;;;;8.65;5.28;;;13.50;99.90;;;;;;5048455;28;20127;-85
2022/10/11 09:09:53;;;;;;;11.15;4.85;;;13.60;99.90;;;;;;5049421;28;20025;-85
2022/10/11 09:12:53;;;;;;;11.23;6.22;;;13.70;99.90;;;;;;5048901;28;20115;-84
2022/10/11 09:15:46;;;;;;;9.75;5.38;;;13.80;99.90;;;;;;5067384;28;20123;-84
2022/10/11 09:18:33;;;;;;;6.78;4.57;;;13.90;99.90;;;;;;5069386;28;20068;-86
2022/10/11 09:21:07;;;;;;;6.00;3.58;;;13.90;99.90;;;;;;5060596;28;20020;-84
2022/10/11 09:23:36;;;;;;;7.55;4.10;;;14.00;99.90;;;;;;5071475;28;20100;-84
2022/10/11 09:26:06;;;;;;;9.77;3.83;;;14.00;99.90;;;;;;5072271;28;20039;-84
2022/10/11 09:29:15;;;;;;;6.80;3.65;;;14.10;99.90;;;;;;5054966;28;20078;-85
2022/10/11 09:31:47;;;;;;;6.07;3.53;;;14.10;99.90;;;;;;5055101;28;20032;-85
2022/10/11 09:34:14;;;;;;;9.15;4.13;;;14.00;99.90;;;;;;5071533;28;20033;-85
2022/10/11 09:37:02;;;;;;;4.85;3.88;;;14.00;99.90;;;;;;5049081;28;20040;-85
2022/10/11 09:39:38;;;;;;;8.80;3.90;;;14.00;99.90;;;;;;5056079;28;20042;-84
2022/10/11 09:42:09;;;;;;;6.95;3.70;;;13.90;99.90;;;;;;5051691;28;20497;-85
2022/10/11 09:44:44;;;;;;;8.70;3.70;;;13.90;99.90;;;;;;5056675;28;20029;-85
2022/10/11 09:47:18;;;;;;;6.55;3.60;;;13.90;99.90;;;;;;5053025;28;20139;-85
2022/10/11 09:49:50;;;;;;;7.28;3.63;;;13.90;99.90;;;;;;5056179;28;20139;-85
2022/10/11 09:52:19;;;;;;;6.65;3.58;;;14.00;99.90;;;;;;5053064;28;20044;-86
2022/10/11 09:54:57;;;;;;;7.68;3.30;;;14.00;99.90;;;;;;5059057;28;20036;-85
2022/10/11 09:57:27;;;;;;;3.20;2.83;;;14.00;99.90;;;;;;5037808;28;20538;-84
2022/10/11 10:00:17;;;;;;;8.30;3.72;;;14.00;99.90;;;;;;5068874;28;20029;-84
2022/10/11 10:02:48;;;;;;;5.38;3.35;;;14.00;99.90;;;;;;5051084;28;20033;-86
2022/10/11 10:05:19;;;;;;;7.18;3.75;;;14.10;99.90;;;;;;5032579;28;20033;-85
2022/10/11 10:08:01;;;;;;;7.10;3.47;;;14.10;99.90;;;;;;5051364;28;20143;-85
2022/10/11 10:11:07;;;;;;;7.55;3.30;;;14.20;99.90;;;;;;5043353;28;20025;-85
2022/10/11 10:13:32;;;;;;;5.88;3.25;;;14.20;99.90;;;;;;5046647;28;20029;-85
2022/10/11 10:15:58;;;;;;;5.32;3.40;;;14.20;99.90;;;;;;5065601;28;20021;-85
2022/10/11 10:18:37;;;;;;;5.75;3.47;;;14.30;99.90;;;;;;5051734;28;20040;-85
2022/10/11 10:21:07;;;;;;;7.30;3.58;;;14.30;99.90;;;;;;5069320;28;20400;-85
2022/10/11 10:23:35;;;;;;;6.47;3.50;;;14.30;99.90;;;;;;5067140;28;20040;-85
2022/10/11 10:26:17;;;;;;;9.02;3.70;;;14.30;99.90;;;;;;5062055;28;20025;-85
2022/10/11 10:29:09;;;;;;;9.40;4.03;;;14.30;99.90;;;;;;5039356;28;20417;-86
2022/10/11 10:31:41;;;;;;;5.68;3.33;;;14.30;99.90;;;;;;5043728;28;20127;-88
2022/10/11 10:34:14;;;;;;;6.93;3.70;;;14.20;99.90;;;;;;5050000;28;20033;-86
2022/10/11 10:36:45;;;;;;;6.63;2.80;;;14.20;99.90;;;;;;5048708;28;20059;-86
2022/10/11 10:39:41;;;;;;;9.50;2.90;;;14.10;99.90;;;;;;5050991;28;20564;-85
2022/10/11 10:42:18;;;;;;;3.90;2.70;;;14.20;99.90;;;;;;5062569;28;20068;-84
2022/10/11 10:44:51;;;;;;;8.20;3.10;;;14.10;99.90;;;;;;5052162;28;20182;-86
2022/10/11 10:47:25;;;;;;;3.95;3.28;;;14.10;99.90;;;;;;5055119;28;20230;-85
2022/10/11 10:50:02;;;;;;;5.87;2.97;;;14.10;99.90;;;;;;5059001;28;20029;-86
2022/10/11 10:52:28;;;;;;;8.23;3.20;;;14.00;99.90;;;;;;5056429;28;20032;-85
2022/10/11 10:55:20;;;;;;;4.47;3.13;;;14.00;99.90;;;;;;5053436;28;20096;-85
2022/10/11 10:58:05;;;;;;;6.88;2.97;;;14.00;99.90;;;;;;5044179;28;20120;-86
2022/10/11 11:00:54;;;;;;;7.53;3.07;;;14.00;99.90;;;;;;5055210;28;20591;-86
2022/10/11 11:03:23;;;;;;;6.47;3.47;;;13.90;99.90;;;;;;5041578;28;20287;-84
2022/10/11 11:06:04;;;;;;;7.18;4.18;;;13.90;99.90;;;;;;5038770;28;20032;-85
2022/10/11 11:08:52;;;;;;;8.27;3.65;;;13.90;99.90;;;;;;5069694;28;20547;-86
2022/10/11 11:11:50;;;;;;;8.23;3.78;;;13.90;99.90;;;;;;5066312;28;20054;-84
2022/10/11 11:14:53;;;;;;;4.00;3.33;;;13.80;99.90;;;;;;5030052;28;20044;-86
2022/10/11 11:17:37;;;;;;;6.32;3.40;;;13.90;99.90;;;;;;5069497;28;20036;-85
2022/10/11 11:20:44;;;;;;;9.30;3.70;;;13.90;99.90;;;;;;5065657;28;20035;-85
2022/10/11 11:23:16;;;;;;;7.07;3.08;;;13.90;99.90;;;;;;5037592;28;20060;-85
2022/10/11 11:26:12;;;;;;;7.32;3.72;;;14.00;99.90;;;;;;5053837;28;20036;-85
2022/10/11 11:29:10;;;;;;;8.60;3.95;;;14.00;99.90;;;;;;5059795;28;20028;-85
2022/10/11 11:32:04;;;;;;;9.20;3.90;;;14.00;99.90;;;;;;5068737;28;20036;-85
2022/10/11 11:34:48;;;;;;;7.13;3.17;;;14.00;99.90;;;;;;5049343;28;20033;-84
2022/10/11 11:37:21;;;;;;;10.73;3.78;;;14.00;99.90;;;;;;5062492;28;20044;-85
2022/10/11 11:40:17;;;;;;;8.05;4.15;;;14.00;99.90;;;;;;5045997;28;20020;-84
2022/10/11 11:43:06;;;;;;;7.03;3.80;;;14.00;99.90;;;;;;5061912;28;20045;-85
2022/10/11 11:45:38;;;;;;;9.25;3.78;;;13.90;99.90;;;;;;5034164;28;20045;-85
2022/10/11 11:48:17;;;;;;;8.95;4.03;;;13.90;99.90;;;;;;5066221;28;20028;-85
2022/10/11 11:50:49;;;;;;;4.53;3.20;;;13.90;99.90;;;;;;5054859;28;20126;-84
2022/10/11 11:53:31;;;;;;;7.20;3.72;;;14.00;99.90;;;;;;5053480;28;20564;-84
2022/10/11 11:56:09;;;;;;;5.90;3.42;;;14.10;99.90;;;;;;5043923;28;20059;-84
2022/10/11 11:58:48;;;;;;;8.70;4.13;;;14.20;99.90;;;;;;5048536;28;20147;-86
2022/10/11 12:01:40;;;;;;;6.75;3.83;;;14.30;99.90;;;;;;5047221;28;20036;-83
2022/10/11 12:04:25;;;;;;;15.52;3.70;;;14.40;99.90;;;;;;5064471;28;20064;-84
2022/10/11 12:07:02;;;;;;;9.27;3.55;;;14.50;99.90;;;;;;5041862;28;20653;-85
2022/10/11 12:09:29;;;;;;;7.55;3.45;;;14.60;99.90;;;;;;5045058;28;20040;-85
2022/10/11 12:12:28;;;;;;;6.47;3.00;;;14.70;99.90;;;;;;5049778;28;20036;-85
2022/10/11 12:15:09;;;;;;;6.47;3.55;;;14.80;99.90;;;;;;5063728;28;20045;-85
2022/10/11 12:17:56;;;;;;;8.93;3.45;;;14.80;99.90;;;;;;5052184;28;20052;-85
2022/10/11 12:20:27;;;;;;;8.10;3.38;;;14.80;99.90;;;;;;5049552;28;20488;-86
2022/10/11 12:22:57;;;;;;;8.02;3.28;;;14.70;99.90;;;;;;5047626;28;20086;-84
2022/10/11 12:25:34;;;;;;;7.85;3.03;;;14.60;99.90;;;;;;5044680;28;21367;-85
2022/10/11 12:28:20;;;;;;;7.78;3.00;;;14.60;99.90;;;;;;5064180;28;20032;-84
2022/10/11 12:30:46;;;;;;;9.25;3.55;;;14.50;99.90;;;;;;5036338;28;20066;-85
2022/10/11 12:33:20;;;;;;;5.22;3.20;;;14.50;99.90;;;;;;5065351;28;20540;-87
2022/10/11 12:35:56;;;;;;;5.88;3.35;;;14.50;99.90;;;;;;5050559;28;20021;-86
2022/10/11 12:38:23;;;;;;;;;;;14.50;99.90;;;;;;5060134;28;20024;-86
2022/10/11 12:41:15;;;;;;;9.45;4.30;;;14.50;99.90;;;;;;5048672;28;19908;-85
2022/10/11 12:43:47;;;;;;;5.32;3.22;;;14.40;99.90;;;;;;5032194;28;20079;-85
2022/10/11 12:46:28;;;;;;;10.15;3.47;;;14.40;99.90;;;;;;5036728;28;20032;-84
2022/10/11 12:49:09;;;;;;;8.63;3.30;;;14.30;99.90;;;;;;5049121;28;20032;-85
2022/10/11 12:51:43;;;;;;;6.50;2.95;;;14.30;99.90;;;;;;5061167;28;20059;-85
2022/10/11 12:54:35;;;;;;;10.70;3.47;;;14.30;99.90;;;;;;5049823;28;20040;-85
2022/10/11 12:57:42;;;;;;;7.00;3.58;;;14.20;99.90;;;;;;5048545;28;20283;-85
2022/10/11 13:00:21;;;;;;;10.98;3.75;;;14.20;99.90;;;;;;5042951;28;20043;-85
2022/10/11 13:02:47;;;;;;;6.57;3.50;;;14.30;99.90;;;;;;5047390;28;20054;-87
2022/10/11 13:05:41;;;;;;;7.53;3.67;;;14.30;99.90;;;;;;5046989;28;20045;-85
2022/10/11 13:08:16;;;;;;;5.25;3.60;;;14.30;99.90;;;;;;5049812;28;20102;-86